KTYR/TYR METAR and TAF weather

Enter ICAO airport designator
Station Type Date Time Source
KTYR METAR 2020/01/27 13:53 UTC NOAA

KTYR 271353Z 11003KT 1/2SM FG OVC002 09/08 A3006 RMK AO2 SLP176 T00940083


Station Type Date Time Source
KTYR Decoded METAR 2020/01/27 13:53 UTC NOAA

TYLER POUNDS FIELDS, TX, United States (KTYR) 32-21N 095-24W 165M
Jan 27, 2020 - 08:53 AM EST / 2020.01.27 1353 UTC
Wind: from the ESE (110 degrees) at 3 MPH (3 KT):0
Visibility: 1/2 mile(s):0
Sky conditions: overcast
Weather: fog
Temperature: 48.9 F (9.4 C)
Dew Point: 46.9 F (8.3 C)
Relative Humidity: 92%
Pressure (altimeter): 30.06 in. Hg (1017 hPa)
ob: KTYR 271353Z 11003KT 1/2SM FG OVC002 09/08 A3006 RMK AO2 SLP176 T00940083
cycle: 14

Station Type Date Time Source
KTYR TAF 2020/01/27 12:54 UTC NOAA

TAF KTYR 271153Z 2712/2812 VRB03KT 1/2SM FG OVC004
TEMPO 2712/2715 1/4SM FG OVC002
FM271500 12003KT 4SM BR BKN007
FM271800 15007KT P6SM SCT025
FM280200 14008KT P6SM SCT015 SCT100
FM280900 15008KT 4SM BR VCSH OVC010

Example: see airport list